WetterOnline ( https://www.wetteronline.de )

Wetter aktuell München

Aktuelles Wetter: München/Stadt (535m)

6-stündlich | Neueste Meldungen
Ortszeit Temperatur Wetter
Di, 22.09. 8:00 14.0° C wolkenlos
Di, 22.09. 2:00 13.8° C wolkenlos
Mo, 21.09. 20:00 18.1° C wolkig
Mo, 21.09. 14:00 22.5° C wolkenlos
Mo, 21.09. 8:00 11.9° C wolkenlos
Mo, 21.09. 2:00 13.1° C wolkenlos
So, 20.09. 20:00 17.7° C wolkig
So, 20.09. 14:00 21.0° C wolkig
Ortszeit Temperatur Wetter
Di, 22.09. 13:30 23.6° C leicht bewölkt
Di, 22.09. 13:20 23.6° C leicht bewölkt
Di, 22.09. 13:10 23.6° C leicht bewölkt
Di, 22.09. 13:00 23.1° C fast wolkenlos
Di, 22.09. 12:50 23.1° C fast wolkenlos
Di, 22.09. 12:40 22.2° C leicht bewölkt
Di, 22.09. 12:30 22.1° C wolkig
Di, 22.09. 12:00 22.1° C fast wolkenlos
Di, 22.09. 11:30 21.1° C wolkenlos
Di, 22.09. 11:00 20.6° C wolkenlos
Ortszeit Relative Feuchte Sichtweite
Di, 22.09. 8:00 89% 30 km
Di, 22.09. 2:00 90% 25 km
Mo, 21.09. 20:00 69% 35 km
Mo, 21.09. 14:00 47% 55 km
Mo, 21.09. 8:00 89% 27 km
Mo, 21.09. 2:00 91% 27 km
So, 20.09. 20:00 70% 40 km
So, 20.09. 14:00 58% 45 km
Ortszeit Relative Feuchte Sichtweite
Di, 22.09. 13:30 49% 45 km
Di, 22.09. 13:20 49% -
Di, 22.09. 13:10 50% -
Di, 22.09. 13:00 52% 45 km
Di, 22.09. 12:50 52% -
Di, 22.09. 12:40 54% -
Di, 22.09. 12:30 52% 55 km
Di, 22.09. 12:00 53% 50 km
Di, 22.09. 11:30 58% 40 km
Di, 22.09. 11:00 59% 50 km
Ortszeit Niederschlagsmenge Niederschlagsart
Di, 22.09. 8:00 0.0 l/m2 in 12 Std. -
Di, 22.09. 2:00 0.0 l/m2 in 6 Std. -
Mo, 21.09. 20:00 0.0 l/m2 in 12 Std. -
Mo, 21.09. 14:00 0.0 l/m2 in 6 Std. -
Mo, 21.09. 8:00 0.0 l/m2 in 12 Std. -
Mo, 21.09. 2:00 0.0 l/m2 in 6 Std. -
So, 20.09. 20:00 0.0 l/m2 in 12 Std. -
So, 20.09. 14:00 0.0 l/m2 in 6 Std. -
Ortszeit Niederschlagsmenge Niederschlagsart
Di, 22.09. 13:30 0.0 l/m2 in 1 Std. -
Di, 22.09. 13:20 keine Meldung -
Di, 22.09. 13:10 keine Meldung -
Di, 22.09. 13:00 0.0 l/m2 in 1 Std. -
Di, 22.09. 12:50 keine Meldung -
Di, 22.09. 12:40 keine Meldung -
Di, 22.09. 12:30 0.0 l/m2 in 1 Std. -
Di, 22.09. 12:00 0.0 l/m2 in 1 Std. -
Di, 22.09. 11:30 0.0 l/m2 in 1 Std. -
Di, 22.09. 11:00 0.0 l/m2 in 1 Std. -
Ortszeit Stärke Spitze Richtung
km/h Bft. km/h Grad Sektor
Di, 22.09. 8:00 4 1 11 180° S
Di, 22.09. 2:00 4 1 11 250° W
Mo, 21.09. 20:00 7 2 18 100° O
Mo, 21.09. 14:00 7 2 14 50° NO
Mo, 21.09. 8:00 4 1 7 350° N
Mo, 21.09. 2:00 4 1 11 290° W
So, 20.09. 20:00 7 2 22 50° NO
So, 20.09. 14:00 9 2 19 80° O
Ortszeit Stärke Spitze Richtung
km/h Bft. km/h Grad Sektor
Di, 22.09. 13:30 7 2 11 220° SW
Di, 22.09. 13:20 7 2 - 220° SW
Di, 22.09. 13:10 6 1 - 10° N
Di, 22.09. 13:00 6 1 13 290° W
Di, 22.09. 12:50 6 1 - 290° W
Di, 22.09. 12:40 7 2 - 340° N
Di, 22.09. 12:30 6 1 11 290° W
Di, 22.09. 12:00 6 1 15 260° W
Di, 22.09. 11:30 9 2 15 270° W
Di, 22.09. 11:00 7 2 11 250° W
Ortszeit Untergrenze Bedeckung Gattung
total tief tief mittel hoch
Di, 22.09. 8:00 - 0/8 0/8 - - -
Di, 22.09. 2:00 - 0/8 0/8 - - -
Mo, 21.09. 20:00 6600 m 5/8 5/8 - - -
Mo, 21.09. 14:00 - 0/8 0/8 - - -
Mo, 21.09. 8:00 - 0/8 0/8 - - -
Mo, 21.09. 2:00 - 0/8 0/8 - - -
So, 20.09. 20:00 7200 m 8/8 0/8 - - -
So, 20.09. 14:00 6600 m 7/8 3/8 - - -
Ortszeit Bedeckungsgrad in Achtel und Wolkenuntergrenze
Di, 22.09. 13:30 2(9000m) 4(9000m)
Di, 22.09. 13:20 2(9000m) 4(9000m)
Di, 22.09. 13:10 5(9000m) 5(9000m)
Di, 22.09. 13:00 1(10500m) 3(9000m)
Di, 22.09. 12:50 1(10500m)
Di, 22.09. 12:40 3(10500m)
Di, 22.09. 12:30 7(10500m)
Di, 22.09. 12:00 2(10500m)
Di, 22.09. 11:30 keine Wolken
Di, 22.09. 11:00 keine Wolken
Ortszeit Luftdruck NN (hPa) Tendenz (hPa in 3 Std.)
Di, 22.09. 8:00 1014 - 0,1
Di, 22.09. 2:00 1015 - 0,8
Mo, 21.09. 20:00 1014 + 0,2
Mo, 21.09. 14:00 1014 - 0,3
Mo, 21.09. 8:00 1017 + 0,4
Mo, 21.09. 2:00 1016 - 0,2
So, 20.09. 20:00 1014 + 0,8
So, 20.09. 14:00 1013 - 0,6
Ortszeit Luftdruck NN (hPa) Tendenz (hPa in 3 Std.)
Di, 22.09. 13:30 1011 - 1,2
Di, 22.09. 13:20 1011 keine Meldung
Di, 22.09. 13:10 1011 keine Meldung
Di, 22.09. 13:00 1011 - 1,0
Di, 22.09. 12:50 1011 keine Meldung
Di, 22.09. 12:40 1011 keine Meldung
Di, 22.09. 12:30 1012 - 0,8
Di, 22.09. 12:00 1012 - 0,4
Di, 22.09. 11:30 1012 - 0,3
Di, 22.09. 11:00 1013 - 0,2
Ortszeit Schneehöhe (cm)
Di, 22.09. 8:00 -
Di, 22.09. 2:00 -
Mo, 21.09. 20:00 -
Mo, 21.09. 14:00 -
Mo, 21.09. 8:00 -
Mo, 21.09. 2:00 -
So, 20.09. 20:00 -
So, 20.09. 14:00 -
Ortszeit Schneehöhe (cm)
Di, 22.09. 13:30 -
Di, 22.09. 13:20 -
Di, 22.09. 13:10 -
Di, 22.09. 13:00 -
Di, 22.09. 12:50 -
Di, 22.09. 12:40 -
Di, 22.09. 12:30 -
Di, 22.09. 12:00 -
Di, 22.09. 11:30 -
Di, 22.09. 11:00 -
Link zu dieser Seite / Seite empfehlen

Das Wetter in ...